Fox Point, Wisconsin
Current Conditions -  °F | °C
As of 12:55 AM on Sunday 23 Nov 2014 (Local Time) from KMWC Reporting Station
Overcast Overcast  
Wind Chill: 50°   Ceiling: 2300
Heat Index: 50°   Visibility: 10mi
Dew Point: 45°   Wind: 13mph
Humidity: 82%   Direction: 200°SSW
Pressure: 29.77"   Gusts: NA
Location:  43.1576°N, 87.9144°W
Report Text: KMWC 230655Z AUTO 20011KT 10SM OVC023 10/07 A2977 RMK AO2
Loading
Personal Weather Stations






























Interactive Weather Map New forecast layout! Learn more

10-Day Weather Forecast

Advertisements
Track Severe Weather on mobile